sensor_id;sensor_type;location;lat;lon;timestamp;P1;durP1;ratioP1;P2;durP2;ratioP2
37275;SDS011;23166;51.150;21.620;2023-02-01T00:00:47;1.60;;;0.90;;
37275;SDS011;23166;51.150;21.620;2023-02-01T00:03:27;4.40;;;2.40;;
37275;SDS011;23166;51.150;21.620;2023-02-01T00:08:22;0.70;;;0.60;;
37275;SDS011;23166;51.150;21.620;2023-02-01T00:11:06;0.70;;;0.70;;
37275;SDS011;23166;51.150;21.620;2023-02-01T00:13:49;1.50;;;1.40;;
37275;SDS011;23166;51.150;21.620;2023-02-01T00:16:21;2.70;;;2.00;;
37275;SDS011;23166;51.150;21.620;2023-02-01T00:32:04;7.80;;;1.70;;
37275;SDS011;23166;51.150;21.620;2023-02-01T00:37:11;0.70;;;0.70;;
37275;SDS011;23166;51.150;21.620;2023-02-01T00:39:38;1.30;;;1.30;;
37275;SDS011;23166;51.150;21.620;2023-02-01T00:42:05;0.00;;;0.00;;
37275;SDS011;23166;51.150;21.620;2023-02-01T00:44:32;1.30;;;0.90;;
37275;SDS011;23166;51.150;21.620;2023-02-01T00:47:02;0.90;;;0.90;;
37275;SDS011;23166;51.150;21.620;2023-02-01T00:51:56;0.20;;;0.20;;
37275;SDS011;23166;51.150;21.620;2023-02-01T00:54:23;0.40;;;0.40;;
37275;SDS011;23166;51.150;21.620;2023-02-01T01:01:43;2.80;;;0.90;;
37275;SDS011;23166;51.150;21.620;2023-02-01T01:06:37;1.80;;;0.70;;
37275;SDS011;23166;51.150;21.620;2023-02-01T01:11:47;0.40;;;0.40;;
37275;SDS011;23166;51.150;21.620;2023-02-01T01:14:14;1.60;;;1.20;;
37275;SDS011;23166;51.150;21.620;2023-02-01T01:16:41;0.70;;;0.20;;
37275;SDS011;23166;51.150;21.620;2023-02-01T01:19:22;7.10;;;2.40;;
37275;SDS011;23166;51.150;21.620;2023-02-01T01:22:03;3.00;;;1.20;;
37275;SDS011;23166;51.150;21.620;2023-02-01T01:24:30;0.60;;;0.60;;
37275;SDS011;23166;51.150;21.620;2023-02-01T01:43:18;0.90;;;0.20;;
37275;SDS011;23166;51.150;21.620;2023-02-01T01:45:49;0.90;;;0.90;;
37275;SDS011;23166;51.150;21.620;2023-02-01T01:48:29;2.90;;;0.90;;
37275;SDS011;23166;51.150;21.620;2023-02-01T01:51:06;0.20;;;0.20;;
37275;SDS011;23166;51.150;21.620;2023-02-01T01:54:06;4.80;;;0.90;;
37275;SDS011;23166;51.150;21.620;2023-02-01T01:56:35;0.10;;;0.10;;
37275;SDS011;23166;51.150;21.620;2023-02-01T01:59:02;0.50;;;0.30;;
37275;SDS011;23166;51.150;21.620;2023-02-01T02:01:31;0.30;;;0.30;;
37275;SDS011;23166;51.150;21.620;2023-02-01T02:04:00;0.40;;;0.00;;
37275;SDS011;23166;51.150;21.620;2023-02-01T02:06:43;0.70;;;0.70;;
37275;SDS011;23166;51.150;21.620;2023-02-01T02:09:17;0.90;;;0.90;;
37275;SDS011;23166;51.150;21.620;2023-02-01T02:11:43;0.50;;;0.50;;
37275;SDS011;23166;51.150;21.620;2023-02-01T02:14:13;0.50;;;0.50;;
37275;SDS011;23166;51.150;21.620;2023-02-01T02:17:08;1.00;;;1.00;;
37275;SDS011;23166;51.150;21.620;2023-02-01T02:29:07;0.40;;;0.40;;
37275;SDS011;23166;51.150;21.620;2023-02-01T02:39:53;0.50;;;0.50;;
37275;SDS011;23166;51.150;21.620;2023-02-01T02:51:15;0.10;;;0.10;;
37275;SDS011;23166;51.150;21.620;2023-02-01T02:54:23;0.00;;;0.00;;
37275;SDS011;23166;51.150;21.620;2023-02-01T02:57:13;0.20;;;0.20;;
37275;SDS011;23166;51.150;21.620;2023-02-01T03:00:02;0.10;;;0.10;;
37275;SDS011;23166;51.150;21.620;2023-02-01T03:02:50;0.30;;;0.30;;
37275;SDS011;23166;51.150;21.620;2023-02-01T03:05:45;0.00;;;0.00;;
37275;SDS011;23166;51.150;21.620;2023-02-01T03:08:19;0.30;;;0.30;;
37275;SDS011;23166;51.150;21.620;2023-02-01T03:11:01;0.00;;;0.00;;
37275;SDS011;23166;51.150;21.620;2023-02-01T03:16:24;0.50;;;0.50;;
37275;SDS011;23166;51.150;21.620;2023-02-01T03:19:06;0.10;;;0.00;;
37275;SDS011;23166;51.150;21.620;2023-02-01T03:21:45;0.20;;;0.10;;
37275;SDS011;23166;51.150;21.620;2023-02-01T03:24:18;0.00;;;0.00;;
37275;SDS011;23166;51.150;21.620;2023-02-01T03:26:57;10.10;;;0.50;;
37275;SDS011;23166;51.150;21.620;2023-02-01T03:29:29;11.00;;;2.60;;
37275;SDS011;23166;51.150;21.620;2023-02-01T03:31:57;0.10;;;0.10;;
37275;SDS011;23166;51.150;21.620;2023-02-01T03:34:23;0.20;;;0.10;;
37275;SDS011;23166;51.150;21.620;2023-02-01T03:36:54;0.10;;;0.10;;
37275;SDS011;23166;51.150;21.620;2023-02-01T03:39:46;0.10;;;0.10;;
37275;SDS011;23166;51.150;21.620;2023-02-01T03:42:26;7.80;;;0.40;;
37275;SDS011;23166;51.150;21.620;2023-02-01T03:47:26;7.20;;;0.60;;
37275;SDS011;23166;51.150;21.620;2023-02-01T03:49:57;0.60;;;0.60;;
37275;SDS011;23166;51.150;21.620;2023-02-01T03:52:30;2.30;;;1.00;;
37275;SDS011;23166;51.150;21.620;2023-02-01T03:55:01;0.00;;;0.00;;
37275;SDS011;23166;51.150;21.620;2023-02-01T03:57:32;5.30;;;0.60;;
37275;SDS011;23166;51.150;21.620;2023-02-01T04:00:09;0.30;;;0.30;;
37275;SDS011;23166;51.150;21.620;2023-02-01T04:02:36;0.30;;;0.30;;
37275;SDS011;23166;51.150;21.620;2023-02-01T04:05:02;0.00;;;0.00;;
37275;SDS011;23166;51.150;21.620;2023-02-01T04:07:28;1.50;;;1.30;;
37275;SDS011;23166;51.150;21.620;2023-02-01T04:09:54;0.00;;;0.00;;
37275;SDS011;23166;51.150;21.620;2023-02-01T04:12:21;6.30;;;1.00;;
37275;SDS011;23166;51.150;21.620;2023-02-01T04:14:47;0.40;;;0.40;;
37275;SDS011;23166;51.150;21.620;2023-02-01T04:17:13;0.20;;;0.20;;
37275;SDS011;23166;51.150;21.620;2023-02-01T04:19:54;0.10;;;0.10;;
37275;SDS011;23166;51.150;21.620;2023-02-01T04:22:20;2.20;;;0.20;;
37275;SDS011;23166;51.150;21.620;2023-02-01T04:24:46;0.10;;;0.10;;
37275;SDS011;23166;51.150;21.620;2023-02-01T04:27:13;4.50;;;0.80;;
37275;SDS011;23166;51.150;21.620;2023-02-01T04:29:39;0.10;;;0.10;;
37275;SDS011;23166;51.150;21.620;2023-02-01T04:32:05;0.00;;;0.00;;
37275;SDS011;23166;51.150;21.620;2023-02-01T04:34:31;1.60;;;0.40;;
37275;SDS011;23166;51.150;21.620;2023-02-01T04:36:57;0.10;;;0.10;;
37275;SDS011;23166;51.150;21.620;2023-02-01T04:39:24;0.00;;;0.00;;
37275;SDS011;23166;51.150;21.620;2023-02-01T04:41:50;0.70;;;0.10;;
37275;SDS011;23166;51.150;21.620;2023-02-01T04:44:17;0.80;;;0.40;;
37275;SDS011;23166;51.150;21.620;2023-02-01T04:46:45;0.00;;;0.00;;
37275;SDS011;23166;51.150;21.620;2023-02-01T04:49:13;1.30;;;1.30;;
37275;SDS011;23166;51.150;21.620;2023-02-01T04:51:40;11.20;;;1.20;;
37275;SDS011;23166;51.150;21.620;2023-02-01T04:56:34;4.60;;;0.80;;
37275;SDS011;23166;51.150;21.620;2023-02-01T04:59:04;1.70;;;1.60;;
37275;SDS011;23166;51.150;21.620;2023-02-01T05:01:30;1.50;;;1.00;;
37275;SDS011;23166;51.150;21.620;2023-02-01T05:03:57;0.20;;;0.20;;
37275;SDS011;23166;51.150;21.620;2023-02-01T05:06:23;3.20;;;0.70;;
37275;SDS011;23166;51.150;21.620;2023-02-01T05:08:50;1.40;;;0.60;;
37275;SDS011;23166;51.150;21.620;2023-02-01T05:11:16;0.00;;;0.00;;
37275;SDS011;23166;51.150;21.620;2023-02-01T05:14:01;0.20;;;0.10;;
37275;SDS011;23166;51.150;21.620;2023-02-01T05:16:27;1.60;;;0.10;;
37275;SDS011;23166;51.150;21.620;2023-02-01T05:18:53;0.20;;;0.10;;
37275;SDS011;23166;51.150;21.620;2023-02-01T05:21:20;0.30;;;0.30;;
37275;SDS011;23166;51.150;21.620;2023-02-01T05:23:46;3.50;;;1.70;;
37275;SDS011;23166;51.150;21.620;2023-02-01T05:26:31;0.10;;;0.10;;
37275;SDS011;23166;51.150;21.620;2023-02-01T05:28:57;0.60;;;0.10;;
37275;SDS011;23166;51.150;21.620;2023-02-01T05:31:24;2.90;;;1.30;;
37275;SDS011;23166;51.150;21.620;2023-02-01T05:33:50;2.70;;;0.40;;
37275;SDS011;23166;51.150;21.620;2023-02-01T05:36:17;2.20;;;0.70;;
37275;SDS011;23166;51.150;21.620;2023-02-01T05:38:43;0.60;;;0.60;;
37275;SDS011;23166;51.150;21.620;2023-02-01T05:41:10;0.70;;;0.50;;
37275;SDS011;23166;51.150;21.620;2023-02-01T05:43:36;2.40;;;0.70;;
37275;SDS011;23166;51.150;21.620;2023-02-01T05:46:02;0.50;;;0.50;;
37275;SDS011;23166;51.150;21.620;2023-02-01T05:48:28;0.10;;;0.10;;
37275;SDS011;23166;51.150;21.620;2023-02-01T05:50:55;0.30;;;0.10;;
37275;SDS011;23166;51.150;21.620;2023-02-01T05:53:21;3.00;;;0.70;;
37275;SDS011;23166;51.150;21.620;2023-02-01T05:55:47;3.10;;;1.20;;
37275;SDS011;23166;51.150;21.620;2023-02-01T05:58:14;13.90;;;1.70;;
37275;SDS011;23166;51.150;21.620;2023-02-01T06:00:40;0.70;;;0.60;;
37275;SDS011;23166;51.150;21.620;2023-02-01T06:03:07;1.10;;;1.00;;
37275;SDS011;23166;51.150;21.620;2023-02-01T06:07:59;0.30;;;0.30;;
37275;SDS011;23166;51.150;21.620;2023-02-01T06:10:26;7.70;;;0.80;;
37275;SDS011;23166;51.150;21.620;2023-02-01T06:12:52;14.60;;;1.00;;
37275;SDS011;23166;51.150;21.620;2023-02-01T06:15:18;0.00;;;0.00;;
37275;SDS011;23166;51.150;21.620;2023-02-01T06:17:45;0.10;;;0.10;;
37275;SDS011;23166;51.150;21.620;2023-02-01T06:20:13;0.70;;;0.70;;
37275;SDS011;23166;51.150;21.620;2023-02-01T06:22:39;8.80;;;2.00;;
37275;SDS011;23166;51.150;21.620;2023-02-01T06:25:07;6.90;;;2.70;;
37275;SDS011;23166;51.150;21.620;2023-02-01T06:27:34;0.60;;;0.60;;
37275;SDS011;23166;51.150;21.620;2023-02-01T06:30:00;0.10;;;0.10;;
37275;SDS011;23166;51.150;21.620;2023-02-01T06:32:26;3.20;;;0.80;;
37275;SDS011;23166;51.150;21.620;2023-02-01T06:34:52;0.00;;;0.00;;
37275;SDS011;23166;51.150;21.620;2023-02-01T06:37:19;3.10;;;0.80;;
37275;SDS011;23166;51.150;21.620;2023-02-01T06:39:45;1.90;;;0.50;;
37275;SDS011;23166;51.150;21.620;2023-02-01T06:42:12;0.40;;;0.30;;
37275;SDS011;23166;51.150;21.620;2023-02-01T06:44:38;2.30;;;0.90;;
37275;SDS011;23166;51.150;21.620;2023-02-01T06:47:04;0.70;;;0.70;;
37275;SDS011;23166;51.150;21.620;2023-02-01T06:49:30;25.00;;;1.60;;
37275;SDS011;23166;51.150;21.620;2023-02-01T06:51:57;0.20;;;0.20;;
37275;SDS011;23166;51.150;21.620;2023-02-01T06:54:27;5.60;;;1.70;;
37275;SDS011;23166;51.150;21.620;2023-02-01T06:56:53;0.80;;;0.40;;
37275;SDS011;23166;51.150;21.620;2023-02-01T06:59:19;1.50;;;0.60;;
37275;SDS011;23166;51.150;21.620;2023-02-01T07:01:45;0.20;;;0.20;;
37275;SDS011;23166;51.150;21.620;2023-02-01T07:04:12;0.60;;;0.60;;
37275;SDS011;23166;51.150;21.620;2023-02-01T07:09:07;0.30;;;0.30;;
37275;SDS011;23166;51.150;21.620;2023-02-01T07:11:33;7.90;;;1.10;;
37275;SDS011;23166;51.150;21.620;2023-02-01T07:13:59;1.40;;;1.20;;
37275;SDS011;23166;51.150;21.620;2023-02-01T07:16:26;20.00;;;2.10;;
37275;SDS011;23166;51.150;21.620;2023-02-01T07:18:52;4.10;;;1.40;;
37275;SDS011;23166;51.150;21.620;2023-02-01T07:21:19;1.30;;;1.30;;
37275;SDS011;23166;51.150;21.620;2023-02-01T07:23:46;0.60;;;0.20;;
37275;SDS011;23166;51.150;21.620;2023-02-01T07:26:14;1.10;;;0.90;;
37275;SDS011;23166;51.150;21.620;2023-02-01T07:28:40;1.50;;;1.40;;
37275;SDS011;23166;51.150;21.620;2023-02-01T07:33:36;15.60;;;0.60;;
37275;SDS011;23166;51.150;21.620;2023-02-01T07:36:04;0.40;;;0.40;;
37275;SDS011;23166;51.150;21.620;2023-02-01T07:38:32;0.70;;;0.40;;
37275;SDS011;23166;51.150;21.620;2023-02-01T07:41:02;1.00;;;0.50;;
37275;SDS011;23166;51.150;21.620;2023-02-01T07:43:29;0.10;;;0.10;;
37275;SDS011;23166;51.150;21.620;2023-02-01T07:45:56;1.30;;;1.10;;
37275;SDS011;23166;51.150;21.620;2023-02-01T07:48:23;0.80;;;0.80;;
37275;SDS011;23166;51.150;21.620;2023-02-01T07:51:10;3.80;;;0.60;;
37275;SDS011;23166;51.150;21.620;2023-02-01T07:53:37;2.40;;;0.20;;
37275;SDS011;23166;51.150;21.620;2023-02-01T07:56:08;5.30;;;0.90;;
37275;SDS011;23166;51.150;21.620;2023-02-01T07:58:36;0.70;;;0.40;;
37275;SDS011;23166;51.150;21.620;2023-02-01T08:01:02;12.00;;;1.50;;
37275;SDS011;23166;51.150;21.620;2023-02-01T08:03:49;2.40;;;2.20;;
37275;SDS011;23166;51.150;21.620;2023-02-01T08:06:16;0.30;;;0.30;;
37275;SDS011;23166;51.150;21.620;2023-02-01T08:08:58;2.70;;;1.20;;
37275;SDS011;23166;51.150;21.620;2023-02-01T08:11:39;11.60;;;3.00;;
37275;SDS011;23166;51.150;21.620;2023-02-01T08:14:05;9.00;;;6.10;;
37275;SDS011;23166;51.150;21.620;2023-02-01T08:16:33;10.30;;;3.70;;
37275;SDS011;23166;51.150;21.620;2023-02-01T08:19:01;7.80;;;2.00;;
37275;SDS011;23166;51.150;21.620;2023-02-01T08:21:28;5.30;;;2.70;;
37275;SDS011;23166;51.150;21.620;2023-02-01T08:24:17;6.40;;;4.00;;
37275;SDS011;23166;51.150;21.620;2023-02-01T08:26:43;2.50;;;1.60;;
37275;SDS011;23166;51.150;21.620;2023-02-01T08:29:09;0.60;;;0.50;;
37275;SDS011;23166;51.150;21.620;2023-02-01T08:31:38;0.60;;;0.60;;
37275;SDS011;23166;51.150;21.620;2023-02-01T08:34:08;3.50;;;2.20;;
37275;SDS011;23166;51.150;21.620;2023-02-01T08:36:35;0.00;;;0.00;;
37275;SDS011;23166;51.150;21.620;2023-02-01T08:39:16;4.20;;;1.10;;
37275;SDS011;23166;51.150;21.620;2023-02-01T08:41:42;2.20;;;0.80;;
37275;SDS011;23166;51.150;21.620;2023-02-01T08:44:28;0.20;;;0.20;;
37275;SDS011;23166;51.150;21.620;2023-02-01T08:46:55;2.40;;;0.50;;
37275;SDS011;23166;51.150;21.620;2023-02-01T08:49:21;0.50;;;0.50;;
37275;SDS011;23166;51.150;21.620;2023-02-01T08:51:47;10.50;;;3.40;;
37275;SDS011;23166;51.150;21.620;2023-02-01T08:54:14;4.40;;;2.40;;
37275;SDS011;23166;51.150;21.620;2023-02-01T08:56:40;9.10;;;3.00;;
37275;SDS011;23166;51.150;21.620;2023-02-01T08:59:06;1.70;;;1.10;;
37275;SDS011;23166;51.150;21.620;2023-02-01T09:01:33;5.50;;;2.20;;
37275;SDS011;23166;51.150;21.620;2023-02-01T09:03:59;2.40;;;2.10;;
37275;SDS011;23166;51.150;21.620;2023-02-01T09:06:25;1.10;;;1.00;;
37275;SDS011;23166;51.150;21.620;2023-02-01T09:08:51;1.80;;;1.50;;
37275;SDS011;23166;51.150;21.620;2023-02-01T09:11:18;0.90;;;0.70;;
37275;SDS011;23166;51.150;21.620;2023-02-01T09:13:48;1.70;;;1.50;;
37275;SDS011;23166;51.150;21.620;2023-02-01T09:18:41;11.70;;;1.30;;
37275;SDS011;23166;51.150;21.620;2023-02-01T09:21:07;8.90;;;0.80;;
37275;SDS011;23166;51.150;21.620;2023-02-01T09:26:02;0.90;;;0.70;;
37275;SDS011;23166;51.150;21.620;2023-02-01T09:28:29;1.20;;;1.00;;
37275;SDS011;23166;51.150;21.620;2023-02-01T09:31:00;9.90;;;0.70;;
37275;SDS011;23166;51.150;21.620;2023-02-01T09:33:28;12.20;;;1.00;;
37275;SDS011;23166;51.150;21.620;2023-02-01T09:35:59;0.20;;;0.20;;
37275;SDS011;23166;51.150;21.620;2023-02-01T09:38:26;0.60;;;0.60;;
37275;SDS011;23166;51.150;21.620;2023-02-01T09:40:54;3.90;;;0.80;;
37275;SDS011;23166;51.150;21.620;2023-02-01T09:46:31;0.50;;;0.50;;
37275;SDS011;23166;51.150;21.620;2023-02-01T09:49:01;1.20;;;0.60;;
37275;SDS011;23166;51.150;21.620;2023-02-01T09:51:36;9.90;;;2.60;;
37275;SDS011;23166;51.150;21.620;2023-02-01T09:54:23;2.40;;;0.60;;
37275;SDS011;23166;51.150;21.620;2023-02-01T09:57:03;0.70;;;0.70;;
37275;SDS011;23166;51.150;21.620;2023-02-01T09:59:40;6.20;;;1.60;;
37275;SDS011;23166;51.150;21.620;2023-02-01T10:02:26;2.00;;;1.20;;
37275;SDS011;23166;51.150;21.620;2023-02-01T10:04:58;1.20;;;1.20;;
37275;SDS011;23166;51.150;21.620;2023-02-01T10:10:48;0.60;;;0.60;;
37275;SDS011;23166;51.150;21.620;2023-02-01T10:13:38;1.50;;;1.40;;
37275;SDS011;23166;51.150;21.620;2023-02-01T10:16:17;1.20;;;1.10;;
37275;SDS011;23166;51.150;21.620;2023-02-01T10:24:17;12.70;;;1.60;;
37275;SDS011;23166;51.150;21.620;2023-02-01T10:27:01;8.40;;;1.20;;
37275;SDS011;23166;51.150;21.620;2023-02-01T10:29:44;3.60;;;1.40;;
37275;SDS011;23166;51.150;21.620;2023-02-01T10:32:32;3.40;;;2.00;;
37275;SDS011;23166;51.150;21.620;2023-02-01T10:35:17;3.60;;;2.20;;
37275;SDS011;23166;51.150;21.620;2023-02-01T10:37:44;4.20;;;1.30;;
37275;SDS011;23166;51.150;21.620;2023-02-01T10:40:26;5.10;;;1.50;;
37275;SDS011;23166;51.150;21.620;2023-02-01T10:42:57;1.50;;;1.20;;
37275;SDS011;23166;51.150;21.620;2023-02-01T10:45:26;1.80;;;1.30;;
37275;SDS011;23166;51.150;21.620;2023-02-01T10:47:56;9.70;;;0.90;;
37275;SDS011;23166;51.150;21.620;2023-02-01T10:50:38;10.40;;;2.70;;
37275;SDS011;23166;51.150;21.620;2023-02-01T10:53:24;2.90;;;1.90;;
37275;SDS011;23166;51.150;21.620;2023-02-01T10:55:53;3.20;;;1.60;;
37275;SDS011;23166;51.150;21.620;2023-02-01T10:58:31;7.00;;;2.90;;
37275;SDS011;23166;51.150;21.620;2023-02-01T11:01:01;0.00;;;0.00;;
37275;SDS011;23166;51.150;21.620;2023-02-01T11:03:44;2.70;;;0.70;;
37275;SDS011;23166;51.150;21.620;2023-02-01T11:06:31;1.00;;;0.90;;
37275;SDS011;23166;51.150;21.620;2023-02-01T11:09:18;2.90;;;1.90;;
37275;SDS011;23166;51.150;21.620;2023-02-01T11:17:16;13.10;;;2.10;;
37275;SDS011;23166;51.150;21.620;2023-02-01T11:19:46;4.00;;;1.70;;
37275;SDS011;23166;51.150;21.620;2023-02-01T11:22:14;1.10;;;0.90;;
37275;SDS011;23166;51.150;21.620;2023-02-01T11:24:44;2.20;;;1.70;;
37275;SDS011;23166;51.150;21.620;2023-02-01T11:27:17;0.60;;;0.60;;
37275;SDS011;23166;51.150;21.620;2023-02-01T11:29:47;0.60;;;0.60;;
37275;SDS011;23166;51.150;21.620;2023-02-01T11:32:18;1.10;;;0.30;;
37275;SDS011;23166;51.150;21.620;2023-02-01T11:34:51;1.20;;;1.10;;
37275;SDS011;23166;51.150;21.620;2023-02-01T11:37:25;2.40;;;1.40;;
37275;SDS011;23166;51.150;21.620;2023-02-01T11:40:00;7.70;;;2.10;;
37275;SDS011;23166;51.150;21.620;2023-02-01T11:42:29;6.40;;;3.50;;
37275;SDS011;23166;51.150;21.620;2023-02-01T11:45:18;3.60;;;1.90;;
37275;SDS011;23166;51.150;21.620;2023-02-01T11:47:45;1.00;;;0.90;;
37275;SDS011;23166;51.150;21.620;2023-02-01T11:50:18;2.00;;;1.30;;
37275;SDS011;23166;51.150;21.620;2023-02-01T12:07:19;0.40;;;0.40;;
37275;SDS011;23166;51.150;21.620;2023-02-01T12:12:26;1.00;;;0.80;;
37275;SDS011;23166;51.150;21.620;2023-02-01T12:21:06;0.80;;;0.80;;
37275;SDS011;23166;51.150;21.620;2023-02-01T12:32:29;1.60;;;1.50;;
37275;SDS011;23166;51.150;21.620;2023-02-01T12:46:02;2.00;;;1.90;;
37275;SDS011;23166;51.150;21.620;2023-02-01T12:51:22;0.80;;;0.70;;
37275;SDS011;23166;51.150;21.620;2023-02-01T13:02:37;2.20;;;2.00;;
37275;SDS011;23166;51.150;21.620;2023-02-01T13:05:22;5.50;;;1.80;;
37275;SDS011;23166;51.150;21.620;2023-02-01T13:08:06;4.30;;;3.30;;
37275;SDS011;23166;51.150;21.620;2023-02-01T13:10:57;18.70;;;3.70;;
37275;SDS011;23166;51.150;21.620;2023-02-01T13:13:34;5.00;;;1.80;;
37275;SDS011;23166;51.150;21.620;2023-02-01T13:16:25;2.00;;;1.90;;
37275;SDS011;23166;51.150;21.620;2023-02-01T13:21:47;1.00;;;0.90;;
37275;SDS011;23166;51.150;21.620;2023-02-01T13:24:30;1.70;;;1.50;;
37275;SDS011;23166;51.150;21.620;2023-02-01T13:26:57;1.80;;;1.30;;
37275;SDS011;23166;51.150;21.620;2023-02-01T13:29:24;2.20;;;1.10;;
37275;SDS011;23166;51.150;21.620;2023-02-01T13:40:52;5.10;;;1.40;;
37275;SDS011;23166;51.150;21.620;2023-02-01T13:43:24;3.20;;;2.50;;
37275;SDS011;23166;51.150;21.620;2023-02-01T13:46:08;1.80;;;1.60;;
37275;SDS011;23166;51.150;21.620;2023-02-01T13:49:02;2.40;;;2.20;;
37275;SDS011;23166;51.150;21.620;2023-02-01T13:51:40;4.40;;;2.50;;
37275;SDS011;23166;51.150;21.620;2023-02-01T13:56:53;1.90;;;1.80;;
37275;SDS011;23166;51.150;21.620;2023-02-01T14:05:54;9.80;;;4.10;;
37275;SDS011;23166;51.150;21.620;2023-02-01T14:08:37;7.20;;;3.50;;
37275;SDS011;23166;51.150;21.620;2023-02-01T14:11:04;7.10;;;4.20;;
37275;SDS011;23166;51.150;21.620;2023-02-01T14:13:38;23.90;;;9.00;;
37275;SDS011;23166;51.150;21.620;2023-02-01T14:18:49;13.60;;;5.80;;
37275;SDS011;23166;51.150;21.620;2023-02-01T14:21:21;8.20;;;6.20;;
37275;SDS011;23166;51.150;21.620;2023-02-01T14:24:00;5.70;;;4.90;;
37275;SDS011;23166;51.150;21.620;2023-02-01T14:26:47;7.40;;;5.40;;
37275;SDS011;23166;51.150;21.620;2023-02-01T14:34:40;0.20;;;0.20;;
37275;SDS011;23166;51.150;21.620;2023-02-01T14:37:28;0.50;;;0.50;;
37275;SDS011;23166;51.150;21.620;2023-02-01T14:39:56;2.30;;;1.80;;
37275;SDS011;23166;51.150;21.620;2023-02-01T14:47:49;0.80;;;0.80;;
37275;SDS011;23166;51.150;21.620;2023-02-01T14:50:39;1.10;;;0.90;;
37275;SDS011;23166;51.150;21.620;2023-02-01T14:55:45;2.10;;;1.80;;
37275;SDS011;23166;51.150;21.620;2023-02-01T15:01:01;5.70;;;2.10;;
37275;SDS011;23166;51.150;21.620;2023-02-01T15:06:42;4.00;;;0.50;;
37275;SDS011;23166;51.150;21.620;2023-02-01T15:11:55;0.90;;;0.90;;
37275;SDS011;23166;51.150;21.620;2023-02-01T15:14:22;3.20;;;2.90;;
37275;SDS011;23166;51.150;21.620;2023-02-01T15:16:48;3.50;;;2.80;;
37275;SDS011;23166;51.150;21.620;2023-02-01T15:19:22;7.20;;;2.50;;
37275;SDS011;23166;51.150;21.620;2023-02-01T15:21:52;5.70;;;4.80;;
37275;SDS011;23166;51.150;21.620;2023-02-01T15:24:24;3.70;;;3.20;;
37275;SDS011;23166;51.150;21.620;2023-02-01T15:26:52;8.70;;;3.80;;
37275;SDS011;23166;51.150;21.620;2023-02-01T15:29:20;12.90;;;3.60;;
37275;SDS011;23166;51.150;21.620;2023-02-01T15:31:49;5.30;;;4.10;;
37275;SDS011;23166;51.150;21.620;2023-02-01T15:34:17;6.80;;;3.00;;
37275;SDS011;23166;51.150;21.620;2023-02-01T15:36:45;2.80;;;2.60;;
37275;SDS011;23166;51.150;21.620;2023-02-01T15:39:16;3.50;;;3.30;;
37275;SDS011;23166;51.150;21.620;2023-02-01T15:41:49;5.50;;;2.90;;
37275;SDS011;23166;51.150;21.620;2023-02-01T15:44:41;12.10;;;4.80;;
37275;SDS011;23166;51.150;21.620;2023-02-01T15:47:25;4.50;;;3.40;;
37275;SDS011;23166;51.150;21.620;2023-02-01T15:50:14;7.00;;;2.70;;
37275;SDS011;23166;51.150;21.620;2023-02-01T15:52:41;8.80;;;4.30;;
37275;SDS011;23166;51.150;21.620;2023-02-01T15:55:40;6.20;;;4.10;;
37275;SDS011;23166;51.150;21.620;2023-02-01T15:58:21;8.80;;;4.60;;
37275;SDS011;23166;51.150;21.620;2023-02-01T16:03:35;6.90;;;4.90;;
37275;SDS011;23166;51.150;21.620;2023-02-01T16:08:34;9.70;;;4.90;;
37275;SDS011;23166;51.150;21.620;2023-02-01T16:11:32;2.30;;;2.20;;
37275;SDS011;23166;51.150;21.620;2023-02-01T16:14:05;3.60;;;2.70;;
37275;SDS011;23166;51.150;21.620;2023-02-01T16:16:32;1.90;;;1.70;;
37275;SDS011;23166;51.150;21.620;2023-02-01T16:18:58;6.90;;;4.70;;
37275;SDS011;23166;51.150;21.620;2023-02-01T16:21:24;4.00;;;3.70;;
37275;SDS011;23166;51.150;21.620;2023-02-01T16:23:51;3.40;;;3.20;;
37275;SDS011;23166;51.150;21.620;2023-02-01T16:26:19;5.10;;;3.40;;
37275;SDS011;23166;51.150;21.620;2023-02-01T16:28:46;5.10;;;3.00;;
37275;SDS011;23166;51.150;21.620;2023-02-01T16:33:50;6.60;;;2.20;;
37275;SDS011;23166;51.150;21.620;2023-02-01T16:36:17;1.70;;;1.60;;
37275;SDS011;23166;51.150;21.620;2023-02-01T16:38:45;4.30;;;3.90;;
37275;SDS011;23166;51.150;21.620;2023-02-01T16:41:16;6.40;;;3.40;;
37275;SDS011;23166;51.150;21.620;2023-02-01T16:43:43;5.80;;;3.50;;
37275;SDS011;23166;51.150;21.620;2023-02-01T16:46:19;5.20;;;3.60;;
37275;SDS011;23166;51.150;21.620;2023-02-01T16:48:57;10.50;;;5.20;;
37275;SDS011;23166;51.150;21.620;2023-02-01T16:51:25;8.60;;;3.10;;
37275;SDS011;23166;51.150;21.620;2023-02-01T16:53:53;17.70;;;4.80;;
37275;SDS011;23166;51.150;21.620;2023-02-01T16:56:31;12.00;;;6.80;;
37275;SDS011;23166;51.150;21.620;2023-02-01T16:58:58;18.80;;;8.20;;
37275;SDS011;23166;51.150;21.620;2023-02-01T17:01:25;11.00;;;6.90;;
37275;SDS011;23166;51.150;21.620;2023-02-01T17:03:52;8.40;;;6.20;;
37275;SDS011;23166;51.150;21.620;2023-02-01T17:06:24;11.50;;;2.40;;
37275;SDS011;23166;51.150;21.620;2023-02-01T17:08:53;12.10;;;5.60;;
37275;SDS011;23166;51.150;21.620;2023-02-01T17:11:20;8.20;;;2.90;;
37275;SDS011;23166;51.150;21.620;2023-02-01T17:16:30;2.70;;;2.20;;
37275;SDS011;23166;51.150;21.620;2023-02-01T17:19:02;11.40;;;3.40;;
37275;SDS011;23166;51.150;21.620;2023-02-01T17:21:39;2.00;;;1.40;;
37275;SDS011;23166;51.150;21.620;2023-02-01T17:24:12;3.70;;;2.40;;
37275;SDS011;23166;51.150;21.620;2023-02-01T17:26:39;9.10;;;3.20;;
37275;SDS011;23166;51.150;21.620;2023-02-01T17:29:06;1.70;;;1.30;;
37275;SDS011;23166;51.150;21.620;2023-02-01T17:31:37;4.20;;;3.90;;
37275;SDS011;23166;51.150;21.620;2023-02-01T17:34:04;8.00;;;3.90;;
37275;SDS011;23166;51.150;21.620;2023-02-01T17:36:46;9.50;;;6.00;;
37275;SDS011;23166;51.150;21.620;2023-02-01T17:39:14;6.90;;;4.30;;
37275;SDS011;23166;51.150;21.620;2023-02-01T17:42:15;7.20;;;4.10;;
37275;SDS011;23166;51.150;21.620;2023-02-01T17:44:41;3.50;;;1.80;;
37275;SDS011;23166;51.150;21.620;2023-02-01T17:47:07;3.60;;;3.40;;
37275;SDS011;23166;51.150;21.620;2023-02-01T17:49:34;2.90;;;2.70;;
37275;SDS011;23166;51.150;21.620;2023-02-01T17:54:27;7.70;;;3.40;;
37275;SDS011;23166;51.150;21.620;2023-02-01T17:56:53;6.10;;;4.10;;
37275;SDS011;23166;51.150;21.620;2023-02-01T17:59:34;7.00;;;2.10;;
37275;SDS011;23166;51.150;21.620;2023-02-01T18:02:00;2.60;;;2.40;;
37275;SDS011;23166;51.150;21.620;2023-02-01T18:04:27;3.90;;;3.00;;
37275;SDS011;23166;51.150;21.620;2023-02-01T18:06:53;3.10;;;2.90;;
37275;SDS011;23166;51.150;21.620;2023-02-01T18:09:19;14.50;;;6.80;;
37275;SDS011;23166;51.150;21.620;2023-02-01T18:11:45;3.80;;;3.10;;
37275;SDS011;23166;51.150;21.620;2023-02-01T18:14:14;4.40;;;4.20;;
37275;SDS011;23166;51.150;21.620;2023-02-01T18:16:40;8.90;;;3.00;;
37275;SDS011;23166;51.150;21.620;2023-02-01T18:19:06;3.20;;;3.00;;
37275;SDS011;23166;51.150;21.620;2023-02-01T18:21:40;10.00;;;2.20;;
37275;SDS011;23166;51.150;21.620;2023-02-01T18:24:11;7.20;;;3.80;;
37275;SDS011;23166;51.150;21.620;2023-02-01T18:26:39;8.60;;;2.80;;
37275;SDS011;23166;51.150;21.620;2023-02-01T18:29:05;8.60;;;3.40;;
37275;SDS011;23166;51.150;21.620;2023-02-01T18:31:32;6.00;;;2.60;;
37275;SDS011;23166;51.150;21.620;2023-02-01T18:34:00;4.50;;;2.90;;
37275;SDS011;23166;51.150;21.620;2023-02-01T18:36:27;5.00;;;3.20;;
37275;SDS011;23166;51.150;21.620;2023-02-01T18:38:55;2.20;;;1.80;;
37275;SDS011;23166;51.150;21.620;2023-02-01T18:41:23;8.30;;;3.60;;
37275;SDS011;23166;51.150;21.620;2023-02-01T18:44:04;2.80;;;2.30;;